createdAt,value
2022-09-26T00:03:31.065Z,100.00
2022-09-26T00:08:35.109Z,100.00
2022-09-26T00:13:39.321Z,100.00
2022-09-26T00:18:41.955Z,100.00
2022-09-26T00:23:45.087Z,100.00
2022-09-26T00:28:47.923Z,100.00
2022-09-26T00:33:50.749Z,100.00
2022-09-26T00:38:53.596Z,100.00
2022-09-26T00:43:57.306Z,100.00
2022-09-26T00:49:33.256Z,100.00
2022-09-26T00:54:38.827Z,100.00
2022-09-26T00:59:48.504Z,100.00
2022-09-26T01:04:51.590Z,100.00
2022-09-26T01:09:55.164Z,100.00
2022-09-26T01:14:58.384Z,100.00
2022-09-26T01:20:21.331Z,100.00
2022-09-26T01:25:39.435Z,100.00
2022-09-26T01:30:48.023Z,100.00
2022-09-26T01:36:05.481Z,100.00
2022-09-26T01:41:16.785Z,100.00
2022-09-26T01:46:39.731Z,100.00
2022-09-26T01:52:09.869Z,100.00
2022-09-26T01:57:17.646Z,100.00
2022-09-26T02:02:26.213Z,100.00
2022-09-26T02:07:40.516Z,100.00
2022-09-26T02:12:45.566Z,100.00
2022-09-26T02:17:53.316Z,100.00
2022-09-26T02:22:57.585Z,100.00
2022-09-26T02:28:00.571Z,100.00
2022-09-26T02:33:03.303Z,100.00
2022-09-26T02:38:06.903Z,100.00
2022-09-26T02:43:20.892Z,100.00
2022-09-26T02:48:23.485Z,100.00
2022-09-26T02:53:41.064Z,100.00
2022-09-26T02:58:51.325Z,100.00
2022-09-26T03:04:00.416Z,100.00
2022-09-26T03:09:04.696Z,100.00
2022-09-26T03:14:08.641Z,100.00
2022-09-26T03:19:22.569Z,100.00
2022-09-26T03:24:26.833Z,100.00
2022-09-26T03:29:29.434Z,100.00
2022-09-26T03:34:32.524Z,100.00
2022-09-26T03:39:35.240Z,100.00
2022-09-26T03:44:37.927Z,100.00
2022-09-26T03:49:40.547Z,100.00
2022-09-26T03:54:46.291Z,100.00
2022-09-26T03:59:49.901Z,100.00
2022-09-26T04:04:53.128Z,100.00
2022-09-26T04:09:55.771Z,100.00
2022-09-26T04:14:58.384Z,100.00
2022-09-26T04:20:01.544Z,100.00
2022-09-26T04:25:04.370Z,100.00
2022-09-26T04:30:07.489Z,100.00
2022-09-26T04:35:10.112Z,100.00
2022-09-26T04:40:12.741Z,100.00
2022-09-26T04:45:15.565Z,100.00
2022-09-26T04:50:18.405Z,100.00
2022-09-26T04:55:21.025Z,100.00
2022-09-26T05:00:23.687Z,100.00
2022-09-26T05:05:26.607Z,100.00
2022-09-26T05:10:29.459Z,100.00
2022-09-26T05:15:32.193Z,100.00
2022-09-26T05:20:35.844Z,100.00
2022-09-26T05:25:59.119Z,100.00
2022-09-26T05:31:02.136Z,100.00
2022-09-26T05:36:05.447Z,100.00
2022-09-26T05:41:08.279Z,100.00
2022-09-26T05:46:11.863Z,100.00
2022-09-26T05:51:16.821Z,100.00
2022-09-26T05:56:19.883Z,100.00
2022-09-26T06:01:24.459Z,100.00
2022-09-26T06:06:30.153Z,100.00
2022-09-26T06:11:33.067Z,100.00
2022-09-26T06:16:35.675Z,100.00
2022-09-26T06:21:40.246Z,100.00
2022-09-26T06:26:42.878Z,100.00
2022-09-26T06:31:46.422Z,100.00
2022-09-26T06:36:49.156Z,100.00
2022-09-26T06:41:51.742Z,100.00
2022-09-26T06:46:54.457Z,100.00
2022-09-26T06:51:57.228Z,100.00
2022-09-26T06:56:59.875Z,100.00
2022-09-26T07:02:02.556Z,100.00
2022-09-26T07:07:05.631Z,100.00
2022-09-26T07:12:16.292Z,100.00
2022-09-26T07:17:19.252Z,100.00
2022-09-26T07:22:21.851Z,100.00
2022-09-26T07:27:24.522Z,100.00
2022-09-26T07:32:29.667Z,100.00
2022-09-26T07:37:32.453Z,100.00
2022-09-26T07:42:34.990Z,100.00
2022-09-26T07:47:56.010Z,100.00
2022-09-26T07:52:58.657Z,100.00
2022-09-26T07:58:01.560Z,100.00
2022-09-26T08:03:04.948Z,100.00
2022-09-26T08:08:08.181Z,100.00
2022-09-26T08:13:10.808Z,100.00
2022-09-26T08:18:13.484Z,100.00
2022-09-26T08:23:17.386Z,100.00
2022-09-26T08:28:19.943Z,100.00
2022-09-26T08:33:23.683Z,100.00
2022-09-26T08:38:27.551Z,100.00
2022-09-26T08:43:31.240Z,100.00
2022-09-26T08:48:39.650Z,100.00
2022-09-26T08:54:01.319Z,100.00
2022-09-26T08:59:05.876Z,100.00
2022-09-26T09:04:18.288Z,100.00
2022-09-26T09:09:21.196Z,100.00
2022-09-26T09:14:39.249Z,100.00
2022-09-26T09:19:48.922Z,100.00
2022-09-26T09:25:15.182Z,100.00
2022-09-26T09:30:38.074Z,100.00
2022-09-26T09:35:48.754Z,100.00
2022-09-26T09:41:00.666Z,100.00
2022-09-26T09:46:11.521Z,100.00
2022-09-26T09:51:35.557Z,100.00
2022-09-26T09:56:41.640Z,100.00
2022-09-26T10:01:47.745Z,100.00
2022-09-26T10:06:51.062Z,100.00
2022-09-26T10:11:54.650Z,100.00
2022-09-26T10:17:09.373Z,100.00
2022-09-26T10:22:45.052Z,100.00
2022-09-26T10:27:50.531Z,100.00
2022-09-26T10:32:56.856Z,100.00
2022-09-26T10:38:01.220Z,100.00
2022-09-26T10:43:25.096Z,100.00
2022-09-26T10:48:53.835Z,100.00
2022-09-26T10:54:04.180Z,100.00
2022-09-26T10:59:09.960Z,100.00
2022-09-26T11:04:50.934Z,100.00
2022-09-26T11:09:59.030Z,100.00
2022-09-26T11:15:05.488Z,100.00
2022-09-26T11:20:09.510Z,100.00
2022-09-26T11:25:28.144Z,100.00
2022-09-26T11:30:33.671Z,100.00
2022-09-26T11:35:59.354Z,100.00
2022-09-26T11:41:02.013Z,100.00
2022-09-26T11:46:43.712Z,100.00
2022-09-26T11:51:59.107Z,100.00
2022-09-26T11:57:09.560Z,100.00
2022-09-26T12:02:47.451Z,97.73
2022-09-26T12:08:06.136Z,96.52
2022-09-26T12:13:29.813Z,95.49
2022-09-26T12:18:43.638Z,94.03
2022-09-26T12:24:04.352Z,94.25
2022-09-26T12:29:28.527Z,94.18
2022-09-26T12:34:38.298Z,93.72
2022-09-26T12:40:10.841Z,92.65
2022-09-26T12:45:35.120Z,92.38
2022-09-26T12:50:56.294Z,91.97
2022-09-26T12:56:07.321Z,93.06
2022-09-26T13:01:25.560Z,93.43
2022-09-26T13:07:02.339Z,93.57
2022-09-26T13:12:17.190Z,93.53
2022-09-26T13:17:45.302Z,92.00
2022-09-26T13:23:04.889Z,90.54
2022-09-26T13:28:11.092Z,91.51
2022-09-26T13:33:35.660Z,90.78
2022-09-26T13:39:00.333Z,89.37
2022-09-26T13:44:18.253Z,89.29
2022-09-26T13:49:54.409Z,88.87
2022-09-26T13:55:10.700Z,87.12
2022-09-26T14:00:23.367Z,84.95
2022-09-26T14:05:47.079Z,85.82
2022-09-26T14:10:53.441Z,86.23
2022-09-26T14:15:59.623Z,86.87
2022-09-26T14:21:09.990Z,88.08
2022-09-26T14:26:27.291Z,87.73
2022-09-26T14:31:38.662Z,88.78
2022-09-26T14:36:41.791Z,89.66
2022-09-26T14:41:44.550Z,90.65
2022-09-26T14:46:53.026Z,90.73
2022-09-26T14:51:59.462Z,91.17
2022-09-26T14:57:08.417Z,91.05
2022-09-26T15:02:17.076Z,91.35
2022-09-26T15:12:39.938Z,93.54
2022-09-26T15:17:52.786Z,93.47
2022-09-26T15:22:57.384Z,93.59
2022-09-26T15:28:00.372Z,94.11
2022-09-26T15:33:04.341Z,94.84
2022-09-26T15:38:12.120Z,95.38
2022-09-26T15:43:22.628Z,96.26
2022-09-26T15:48:25.399Z,97.34
2022-09-26T15:53:56.125Z,97.51
2022-09-26T15:59:02.265Z,97.93
2022-09-26T16:04:14.044Z,97.74
2022-09-26T16:09:34.160Z,98.15
2022-09-26T16:14:46.416Z,98.50
2022-09-26T16:20:12.947Z,99.30
2022-09-26T16:25:15.720Z,99.63
2022-09-26T16:30:25.517Z,100.00
2022-09-26T16:35:30.053Z,100.00
2022-09-26T16:40:34.660Z,100.00
2022-09-26T16:45:45.399Z,99.39
2022-09-26T16:50:48.579Z,99.05
2022-09-26T16:55:52.512Z,98.99
2022-09-26T17:01:13.791Z,99.48
2022-09-26T17:06:16.523Z,99.59
2022-09-26T17:11:19.861Z,99.83
2022-09-26T17:16:22.561Z,100.00
2022-09-26T17:21:25.424Z,100.00
2022-09-26T17:26:29.926Z,100.00
2022-09-26T17:31:33.920Z,100.00
2022-09-26T17:36:36.708Z,100.00
2022-09-26T17:41:39.562Z,100.00
2022-09-26T17:46:42.493Z,100.00
2022-09-26T17:51:45.293Z,100.00
2022-09-26T17:56:48.620Z,100.00
2022-09-26T18:01:57.681Z,100.00
2022-09-26T18:07:04.422Z,100.00
2022-09-26T18:12:12.605Z,100.00
2022-09-26T18:17:16.226Z,100.00
2022-09-26T18:22:23.233Z,100.00
2022-09-26T18:27:26.050Z,100.00
2022-09-26T18:32:34.031Z,100.00
2022-09-26T18:37:36.870Z,100.00
2022-09-26T18:42:39.595Z,100.00
2022-09-26T18:47:44.631Z,100.00
2022-09-26T18:52:47.745Z,100.00
2022-09-26T18:58:08.930Z,100.00
2022-09-26T19:03:11.689Z,100.00
2022-09-26T19:08:32.976Z,100.00
2022-09-26T19:13:35.613Z,100.00
2022-09-26T19:18:38.632Z,100.00
2022-09-26T19:23:41.652Z,100.00
2022-09-26T19:28:44.352Z,100.00
2022-09-26T19:33:49.033Z,100.00
2022-09-26T19:38:52.245Z,100.00
2022-09-26T19:43:54.905Z,100.00
2022-09-26T19:48:57.884Z,100.00
2022-09-26T19:54:05.416Z,100.00
2022-09-26T19:59:11.682Z,100.00
2022-09-26T20:04:19.388Z,100.00
2022-09-26T20:09:22.096Z,100.00
2022-09-26T20:14:24.827Z,100.00
2022-09-26T20:19:33.497Z,100.00
2022-09-26T20:24:38.220Z,100.00
2022-09-26T20:29:59.902Z,100.00
2022-09-26T20:35:03.905Z,100.00
2022-09-26T20:40:17.673Z,100.00
2022-09-26T20:45:27.802Z,100.00
2022-09-26T20:50:34.123Z,100.00
2022-09-26T20:55:40.716Z,100.00
2022-09-26T21:00:47.124Z,100.00
2022-09-26T21:05:49.720Z,100.00
2022-09-26T21:10:52.783Z,100.00
2022-09-26T21:15:55.493Z,100.00
2022-09-26T21:21:07.126Z,100.00
2022-09-26T21:26:20.269Z,100.00
2022-09-26T21:31:32.076Z,100.00
2022-09-26T21:36:38.028Z,100.00
2022-09-26T21:41:40.814Z,100.00
2022-09-26T21:46:43.469Z,100.00
2022-09-26T21:51:49.675Z,100.00
2022-09-26T21:57:01.167Z,100.00
2022-09-26T22:02:04.462Z,100.00
2022-09-26T22:07:07.574Z,100.00
2022-09-26T22:12:10.288Z,100.00
2022-09-26T22:17:12.997Z,100.00
2022-09-26T22:22:17.333Z,100.00
2022-09-26T22:27:21.619Z,100.00
2022-09-26T22:32:24.244Z,100.00
2022-09-26T22:37:26.887Z,100.00
2022-09-26T22:42:29.847Z,100.00
2022-09-26T22:47:32.491Z,100.00
2022-09-26T22:52:35.090Z,100.00
2022-09-26T22:57:37.765Z,100.00
2022-09-26T23:02:40.335Z,100.00
2022-09-26T23:07:42.995Z,100.00
2022-09-26T23:12:45.724Z,100.00
2022-09-26T23:17:48.431Z,100.00
2022-09-26T23:22:51.082Z,100.00
2022-09-26T23:27:53.804Z,100.00
2022-09-26T23:32:56.531Z,100.00
2022-09-26T23:37:59.197Z,100.00
2022-09-26T23:43:02.544Z,100.00
2022-09-26T23:48:05.134Z,100.00
2022-09-26T23:53:07.956Z,100.00
2022-09-26T23:58:11.580Z,100.00
